TimeMDT,TemperatureF,Dew PointF,Humidity,Sea Level PressureIn,VisibilityMPH,Wind Direction,Wind SpeedMPH,Gust SpeedMPH,PrecipitationIn,Events,Conditions,WindDirDegrees,DateUTC
12:53 AM,64.0,50.0,60,29.78,10.0,SE,10.4,-,N/A,,Clear,140,2013-08-06 06:53:00
1:53 AM,62.1,50.0,65,29.77,10.0,SSE,4.6,-,N/A,,Clear,150,2013-08-06 07:53:00
2:53 AM,57.0,50.0,77,29.77,10.0,NE,5.8,-,N/A,,Clear,50,2013-08-06 08:53:00
3:53 AM,57.0,50.0,77,29.77,10.0,West,8.1,-,N/A,,Clear,260,2013-08-06 09:53:00
4:53 AM,60.1,50.0,69,29.79,10.0,WNW,11.5,-,N/A,,Clear,300,2013-08-06 10:53:00
5:53 AM,57.0,50.0,77,29.83,10.0,NNW,11.5,-,N/A,,Clear,340,2013-08-06 11:53:00
6:53 AM,60.1,55.9,86,29.86,10.0,NNE,9.2,-,N/A,,Clear,20,2013-08-06 12:53:00
7:53 AM,63.0,57.9,84,29.87,10.0,North,8.1,-,N/A,,Clear,360,2013-08-06 13:53:00
8:53 AM,68.0,57.9,70,29.87,10.0,NNW,6.9,-,N/A,,Clear,340,2013-08-06 14:53:00
9:53 AM,71.1,57.9,63,29.88,10.0,WNW,5.8,-,N/A,,Clear,290,2013-08-06 15:53:00
10:53 AM,77.0,57.9,52,29.87,10.0,Calm,Calm,-,N/A,,Clear,0,2013-08-06 16:53:00
11:53 AM,80.1,55.9,43,29.86,10.0,Calm,Calm,-,N/A,,Clear,0,2013-08-06 17:53:00
12:53 PM,84.9,51.1,31,29.84,10.0,NE,9.2,-,N/A,,Clear,50,2013-08-06 18:53:00
1:53 PM,84.9,51.1,31,29.83,10.0,East,9.2,18.4,N/A,,Clear,80,2013-08-06 19:53:00
2:53 PM,87.1,50.0,28,29.82,10.0,East,8.1,-,N/A,,Clear,100,2013-08-06 20:53:00
3:53 PM,90.0,50.0,25,29.81,10.0,East,6.9,-,N/A,,Clear,90,2013-08-06 21:53:00
4:53 PM,86.0,50.0,29,29.79,10.0,SE,9.2,-,N/A,,Clear,140,2013-08-06 22:53:00
5:10 PM,86.0,50.0,29,29.96,10.0,Variable,3.5,-,N/A,Thunderstorm,Mostly Cloudy,0,2013-08-06 23:10:00
5:53 PM,73.9,55.0,52,29.83,10.0,ENE,24.2,-,0.00,Rain-Thunderstorm,Light Rain,60,2013-08-06 23:53:00
6:32 PM,73.4,55.4,53,29.98,10.0,East,13.8,-,0.00,,Mostly Cloudy,80,2013-08-07 00:32:00
6:53 PM,75.0,57.9,55,29.86,10.0,ENE,16.1,-,0.00,Rain,Light Rain,70,2013-08-07 00:53:00
7:53 PM,70.0,55.9,61,29.91,10.0,SE,9.2,-,0.00,,Mostly Cloudy,130,2013-08-07 01:53:00
8:53 PM,66.9,55.9,68,29.90,10.0,NE,9.2,-,N/A,,Clear,50,2013-08-07 02:53:00
9:53 PM,66.0,55.9,70,29.90,10.0,ENE,13.8,-,N/A,,Clear,70,2013-08-07 03:53:00
10:53 PM,63.0,57.0,81,29.93,10.0,ESE,4.6,-,N/A,,Clear,120,2013-08-07 04:53:00
11:53 PM,63.0,57.0,81,29.94,10.0,Calm,Calm,-,N/A,,Clear,0,2013-08-07 05:53:00